Terminal Aerodrome Forecast
Issued by NWS

Current Version | Previous Version | Graphics & Text | Print | Product List | Glossary On
Versions: 1 2 3 4 5 6 7 8 9 10 11 12 13 14 15 16 17 18
000
FTUS41 KPBZ 230520
TAFMGW
TAF
KMGW 230520Z 2306/2406 36003KT P6SM -RA OVC060
     FM230900 00000KT 3SM -SHRA BR BKN060
     FM231300 01003KT P6SM BKN035
     FM231700 36006KT P6SM VCTS BKN040CB
     FM232200 35003KT P6SM BKN100
     FM240300 00000KT 3SM BR SKC=

USA.gov is the U.S. government's official web portal to all federal, state and local government web resources and services.